sensor_id;sensor_type;location;lat;lon;timestamp;temperature;humidity
19248;DHT22;9758;48.640;8.148;2022-10-16T00:01:36;19.10;62.30
19248;DHT22;9758;48.640;8.148;2022-10-16T00:04:03;19.10;62.30
19248;DHT22;9758;48.640;8.148;2022-10-16T00:06:30;19.10;62.30
19248;DHT22;9758;48.640;8.148;2022-10-16T00:09:00;19.10;62.40
19248;DHT22;9758;48.640;8.148;2022-10-16T00:11:29;19.10;62.40
19248;DHT22;9758;48.640;8.148;2022-10-16T00:14:01;19.20;62.40
19248;DHT22;9758;48.640;8.148;2022-10-16T00:16:28;19.10;62.30
19248;DHT22;9758;48.640;8.148;2022-10-16T00:18:56;19.20;62.40
19248;DHT22;9758;48.640;8.148;2022-10-16T00:21:25;19.10;62.40
19248;DHT22;9758;48.640;8.148;2022-10-16T00:23:53;19.10;62.30
19248;DHT22;9758;48.640;8.148;2022-10-16T00:26:20;19.20;62.40
19248;DHT22;9758;48.640;8.148;2022-10-16T00:28:47;19.20;62.40
19248;DHT22;9758;48.640;8.148;2022-10-16T00:31:17;19.20;62.40
19248;DHT22;9758;48.640;8.148;2022-10-16T00:33:44;19.10;62.30
19248;DHT22;9758;48.640;8.148;2022-10-16T00:36:13;19.10;62.30
19248;DHT22;9758;48.640;8.148;2022-10-16T00:38:40;19.10;62.30
19248;DHT22;9758;48.640;8.148;2022-10-16T00:41:10;19.10;62.30
19248;DHT22;9758;48.640;8.148;2022-10-16T00:43:41;19.10;62.30
19248;DHT22;9758;48.640;8.148;2022-10-16T00:46:17;19.10;62.40
19248;DHT22;9758;48.640;8.148;2022-10-16T00:48:48;19.10;62.40
19248;DHT22;9758;48.640;8.148;2022-10-16T00:51:19;19.10;62.40
19248;DHT22;9758;48.640;8.148;2022-10-16T00:53:48;19.10;62.40
19248;DHT22;9758;48.640;8.148;2022-10-16T00:56:15;19.10;62.40
19248;DHT22;9758;48.640;8.148;2022-10-16T00:58:42;19.10;62.40
19248;DHT22;9758;48.640;8.148;2022-10-16T01:01:09;19.10;62.40
19248;DHT22;9758;48.640;8.148;2022-10-16T01:03:37;19.10;62.40
19248;DHT22;9758;48.640;8.148;2022-10-16T01:06:11;19.10;62.40
19248;DHT22;9758;48.640;8.148;2022-10-16T01:08:52;19.10;62.40
19248;DHT22;9758;48.640;8.148;2022-10-16T01:11:27;19.10;62.40
19248;DHT22;9758;48.640;8.148;2022-10-16T01:13:59;19.10;62.40
19248;DHT22;9758;48.640;8.148;2022-10-16T01:16:33;19.10;62.40
19248;DHT22;9758;48.640;8.148;2022-10-16T01:22:12;19.10;62.50
19248;DHT22;9758;48.640;8.148;2022-10-16T01:24:41;19.10;62.50
19248;DHT22;9758;48.640;8.148;2022-10-16T01:27:13;19.10;62.60
19248;DHT22;9758;48.640;8.148;2022-10-16T01:29:48;19.10;62.60
19248;DHT22;9758;48.640;8.148;2022-10-16T01:32:19;19.10;62.60
19248;DHT22;9758;48.640;8.148;2022-10-16T01:34:49;19.00;62.50
19248;DHT22;9758;48.640;8.148;2022-10-16T01:37:32;19.10;62.60
19248;DHT22;9758;48.640;8.148;2022-10-16T01:40:00;19.10;62.60
19248;DHT22;9758;48.640;8.148;2022-10-16T01:42:34;19.10;62.60
19248;DHT22;9758;48.640;8.148;2022-10-16T01:45:03;19.10;62.50
19248;DHT22;9758;48.640;8.148;2022-10-16T01:47:32;19.10;62.50
19248;DHT22;9758;48.640;8.148;2022-10-16T01:50:00;19.10;62.50
19248;DHT22;9758;48.640;8.148;2022-10-16T01:52:32;19.10;62.50
19248;DHT22;9758;48.640;8.148;2022-10-16T01:55:02;19.10;62.50
19248;DHT22;9758;48.640;8.148;2022-10-16T01:57:32;19.10;62.50
19248;DHT22;9758;48.640;8.148;2022-10-16T02:00:03;19.10;62.50
19248;DHT22;9758;48.640;8.148;2022-10-16T02:02:32;19.10;62.50
19248;DHT22;9758;48.640;8.148;2022-10-16T02:05:03;19.10;62.50
19248;DHT22;9758;48.640;8.148;2022-10-16T02:07:31;19.10;62.50
19248;DHT22;9758;48.640;8.148;2022-10-16T02:09:59;19.10;62.50
19248;DHT22;9758;48.640;8.148;2022-10-16T02:12:28;19.00;62.50
19248;DHT22;9758;48.640;8.148;2022-10-16T02:14:59;19.00;62.50
19248;DHT22;9758;48.640;8.148;2022-10-16T02:17:26;19.10;62.60
19248;DHT22;9758;48.640;8.148;2022-10-16T02:19:55;19.10;62.60
19248;DHT22;9758;48.640;8.148;2022-10-16T02:22:32;19.10;62.60
19248;DHT22;9758;48.640;8.148;2022-10-16T02:25:04;19.10;62.50
19248;DHT22;9758;48.640;8.148;2022-10-16T02:27:35;19.10;62.50
19248;DHT22;9758;48.640;8.148;2022-10-16T02:30:09;19.10;62.40
19248;DHT22;9758;48.640;8.148;2022-10-16T02:32:39;19.10;62.40
19248;DHT22;9758;48.640;8.148;2022-10-16T02:35:09;19.00;62.40
19248;DHT22;9758;48.640;8.148;2022-10-16T02:37:36;19.00;62.40
19248;DHT22;9758;48.640;8.148;2022-10-16T02:40:06;19.00;62.40
19248;DHT22;9758;48.640;8.148;2022-10-16T02:42:34;19.00;62.40
19248;DHT22;9758;48.640;8.148;2022-10-16T02:45:01;19.00;62.40
19248;DHT22;9758;48.640;8.148;2022-10-16T02:47:29;19.00;62.50
19248;DHT22;9758;48.640;8.148;2022-10-16T02:49:56;18.90;62.40
19248;DHT22;9758;48.640;8.148;2022-10-16T02:52:23;18.90;62.50
19248;DHT22;9758;48.640;8.148;2022-10-16T02:54:49;19.00;62.60
19248;DHT22;9758;48.640;8.148;2022-10-16T02:57:17;18.90;62.50
19248;DHT22;9758;48.640;8.148;2022-10-16T02:59:44;18.90;62.60
19248;DHT22;9758;48.640;8.148;2022-10-16T03:02:11;18.90;62.60
19248;DHT22;9758;48.640;8.148;2022-10-16T03:04:39;18.90;62.60
19248;DHT22;9758;48.640;8.148;2022-10-16T03:07:06;18.90;62.60
19248;DHT22;9758;48.640;8.148;2022-10-16T03:09:33;18.90;62.60
19248;DHT22;9758;48.640;8.148;2022-10-16T03:12:00;18.90;62.60
19248;DHT22;9758;48.640;8.148;2022-10-16T03:14:26;18.90;62.60
19248;DHT22;9758;48.640;8.148;2022-10-16T03:16:53;18.90;62.60
19248;DHT22;9758;48.640;8.148;2022-10-16T03:19:20;19.00;62.60
19248;DHT22;9758;48.640;8.148;2022-10-16T03:21:48;18.90;62.60
19248;DHT22;9758;48.640;8.148;2022-10-16T03:24:15;18.90;62.60
19248;DHT22;9758;48.640;8.148;2022-10-16T03:26:42;18.90;62.60
19248;DHT22;9758;48.640;8.148;2022-10-16T03:29:09;18.90;62.60
19248;DHT22;9758;48.640;8.148;2022-10-16T03:31:35;18.90;62.60
19248;DHT22;9758;48.640;8.148;2022-10-16T03:34:02;18.90;62.60
19248;DHT22;9758;48.640;8.148;2022-10-16T03:36:29;18.90;62.60
19248;DHT22;9758;48.640;8.148;2022-10-16T03:38:58;19.00;62.70
19248;DHT22;9758;48.640;8.148;2022-10-16T03:41:24;19.00;62.70
19248;DHT22;9758;48.640;8.148;2022-10-16T03:43:51;19.00;62.60
19248;DHT22;9758;48.640;8.148;2022-10-16T03:46:18;19.00;62.60
19248;DHT22;9758;48.640;8.148;2022-10-16T03:48:45;19.00;62.60
19248;DHT22;9758;48.640;8.148;2022-10-16T03:51:12;19.00;62.60
19248;DHT22;9758;48.640;8.148;2022-10-16T03:53:38;19.00;62.60
19248;DHT22;9758;48.640;8.148;2022-10-16T03:56:07;19.10;62.60
19248;DHT22;9758;48.640;8.148;2022-10-16T03:58:34;19.10;62.60
19248;DHT22;9758;48.640;8.148;2022-10-16T04:01:00;19.10;62.60
19248;DHT22;9758;48.640;8.148;2022-10-16T04:03:27;19.10;62.50
19248;DHT22;9758;48.640;8.148;2022-10-16T04:05:55;19.10;62.50
19248;DHT22;9758;48.640;8.148;2022-10-16T04:08:25;19.10;62.40
19248;DHT22;9758;48.640;8.148;2022-10-16T04:10:51;19.20;62.40
19248;DHT22;9758;48.640;8.148;2022-10-16T04:13:19;19.20;62.40
19248;DHT22;9758;48.640;8.148;2022-10-16T04:15:46;19.20;62.40
19248;DHT22;9758;48.640;8.148;2022-10-16T04:18:13;19.20;62.30
19248;DHT22;9758;48.640;8.148;2022-10-16T04:20:40;19.20;62.30
19248;DHT22;9758;48.640;8.148;2022-10-16T04:23:07;19.20;62.30
19248;DHT22;9758;48.640;8.148;2022-10-16T04:25:34;19.20;62.30
19248;DHT22;9758;48.640;8.148;2022-10-16T04:28:01;19.20;62.30
19248;DHT22;9758;48.640;8.148;2022-10-16T04:30:29;19.20;62.30
19248;DHT22;9758;48.640;8.148;2022-10-16T04:32:56;19.10;62.20
19248;DHT22;9758;48.640;8.148;2022-10-16T04:35:22;19.10;62.30
19248;DHT22;9758;48.640;8.148;2022-10-16T04:37:49;19.10;62.30
19248;DHT22;9758;48.640;8.148;2022-10-16T04:40:17;19.10;62.30
19248;DHT22;9758;48.640;8.148;2022-10-16T04:42:43;19.20;62.30
19248;DHT22;9758;48.640;8.148;2022-10-16T04:45:10;19.10;62.30
19248;DHT22;9758;48.640;8.148;2022-10-16T04:47:38;19.10;62.20
19248;DHT22;9758;48.640;8.148;2022-10-16T04:50:06;19.10;62.30
19248;DHT22;9758;48.640;8.148;2022-10-16T04:52:33;19.10;62.30
19248;DHT22;9758;48.640;8.148;2022-10-16T04:55:01;19.10;62.30
19248;DHT22;9758;48.640;8.148;2022-10-16T04:57:28;19.00;62.30
19248;DHT22;9758;48.640;8.148;2022-10-16T04:59:55;19.00;62.30
19248;DHT22;9758;48.640;8.148;2022-10-16T05:02:22;18.90;62.20
19248;DHT22;9758;48.640;8.148;2022-10-16T05:04:51;18.90;62.20
19248;DHT22;9758;48.640;8.148;2022-10-16T05:07:17;18.80;62.30
19248;DHT22;9758;48.640;8.148;2022-10-16T05:09:44;18.80;62.30
19248;DHT22;9758;48.640;8.148;2022-10-16T05:12:11;18.70;62.30
19248;DHT22;9758;48.640;8.148;2022-10-16T05:14:38;18.70;62.40
19248;DHT22;9758;48.640;8.148;2022-10-16T05:17:04;18.70;62.40
19248;DHT22;9758;48.640;8.148;2022-10-16T05:19:31;18.60;62.40
19248;DHT22;9758;48.640;8.148;2022-10-16T05:21:59;18.60;62.50
19248;DHT22;9758;48.640;8.148;2022-10-16T05:24:26;18.60;62.60
19248;DHT22;9758;48.640;8.148;2022-10-16T05:26:53;18.60;62.60
19248;DHT22;9758;48.640;8.148;2022-10-16T05:29:20;18.60;62.60
19248;DHT22;9758;48.640;8.148;2022-10-16T05:31:50;18.50;62.60
19248;DHT22;9758;48.640;8.148;2022-10-16T05:34:17;18.50;62.60
19248;DHT22;9758;48.640;8.148;2022-10-16T05:37:02;18.50;62.60
19248;DHT22;9758;48.640;8.148;2022-10-16T05:39:29;18.40;62.60
19248;DHT22;9758;48.640;8.148;2022-10-16T05:41:56;18.40;62.60
19248;DHT22;9758;48.640;8.148;2022-10-16T05:44:22;18.40;62.60
19248;DHT22;9758;48.640;8.148;2022-10-16T05:46:49;18.40;62.70
19248;DHT22;9758;48.640;8.148;2022-10-16T05:49:16;18.30;62.70
19248;DHT22;9758;48.640;8.148;2022-10-16T05:51:43;18.30;62.70
19248;DHT22;9758;48.640;8.148;2022-10-16T05:54:11;18.30;62.90
19248;DHT22;9758;48.640;8.148;2022-10-16T05:56:38;18.20;62.80
19248;DHT22;9758;48.640;8.148;2022-10-16T05:59:05;18.20;62.90
19248;DHT22;9758;48.640;8.148;2022-10-16T06:01:32;18.20;62.90
19248;DHT22;9758;48.640;8.148;2022-10-16T06:03:59;18.20;62.90
19248;DHT22;9758;48.640;8.148;2022-10-16T06:06:27;18.20;63.00
19248;DHT22;9758;48.640;8.148;2022-10-16T06:08:56;18.20;63.10
19248;DHT22;9758;48.640;8.148;2022-10-16T06:11:25;18.20;63.10
19248;DHT22;9758;48.640;8.148;2022-10-16T06:13:54;18.10;63.20
19248;DHT22;9758;48.640;8.148;2022-10-16T06:16:22;18.10;63.20
19248;DHT22;9758;48.640;8.148;2022-10-16T06:18:50;18.10;63.20
19248;DHT22;9758;48.640;8.148;2022-10-16T06:21:19;18.20;63.30
19248;DHT22;9758;48.640;8.148;2022-10-16T06:23:47;18.20;63.40
19248;DHT22;9758;48.640;8.148;2022-10-16T06:26:15;18.30;63.40
19248;DHT22;9758;48.640;8.148;2022-10-16T06:28:43;18.30;63.40
19248;DHT22;9758;48.640;8.148;2022-10-16T06:31:11;18.40;63.50
19248;DHT22;9758;48.640;8.148;2022-10-16T06:33:39;18.40;63.30
19248;DHT22;9758;48.640;8.148;2022-10-16T06:36:08;18.50;63.30
19248;DHT22;9758;48.640;8.148;2022-10-16T06:38:35;18.60;63.20
19248;DHT22;9758;48.640;8.148;2022-10-16T06:41:02;18.60;63.10
19248;DHT22;9758;48.640;8.148;2022-10-16T06:43:30;18.70;63.10
19248;DHT22;9758;48.640;8.148;2022-10-16T06:46:00;18.80;63.00
19248;DHT22;9758;48.640;8.148;2022-10-16T06:48:27;18.80;63.00
19248;DHT22;9758;48.640;8.148;2022-10-16T06:51:06;18.90;63.00
19248;DHT22;9758;48.640;8.148;2022-10-16T06:53:34;18.90;62.90
19248;DHT22;9758;48.640;8.148;2022-10-16T06:56:07;18.90;62.80
19248;DHT22;9758;48.640;8.148;2022-10-16T06:58:34;18.90;62.70
19248;DHT22;9758;48.640;8.148;2022-10-16T07:01:02;19.00;62.70
19248;DHT22;9758;48.640;8.148;2022-10-16T07:03:29;19.00;62.70
19248;DHT22;9758;48.640;8.148;2022-10-16T07:05:56;19.00;62.60
19248;DHT22;9758;48.640;8.148;2022-10-16T07:08:23;19.10;62.70
19248;DHT22;9758;48.640;8.148;2022-10-16T07:10:58;19.10;62.70
19248;DHT22;9758;48.640;8.148;2022-10-16T07:13:25;19.10;62.70
19248;DHT22;9758;48.640;8.148;2022-10-16T07:15:52;19.20;62.70
19248;DHT22;9758;48.640;8.148;2022-10-16T07:18:20;19.20;62.60
19248;DHT22;9758;48.640;8.148;2022-10-16T07:20:47;19.30;62.60
19248;DHT22;9758;48.640;8.148;2022-10-16T07:23:13;19.30;62.50
19248;DHT22;9758;48.640;8.148;2022-10-16T07:25:40;19.30;62.40
19248;DHT22;9758;48.640;8.148;2022-10-16T07:28:07;19.40;62.40
19248;DHT22;9758;48.640;8.148;2022-10-16T07:30:35;19.40;62.40
19248;DHT22;9758;48.640;8.148;2022-10-16T07:33:03;19.50;62.40
19248;DHT22;9758;48.640;8.148;2022-10-16T07:35:31;19.50;62.30
19248;DHT22;9758;48.640;8.148;2022-10-16T07:37:58;19.50;62.10
19248;DHT22;9758;48.640;8.148;2022-10-16T07:40:25;19.50;62.20
19248;DHT22;9758;48.640;8.148;2022-10-16T07:42:52;19.60;62.20
19248;DHT22;9758;48.640;8.148;2022-10-16T07:45:19;19.60;62.10
19248;DHT22;9758;48.640;8.148;2022-10-16T07:47:46;19.60;62.10
19248;DHT22;9758;48.640;8.148;2022-10-16T07:50:12;19.70;62.20
19248;DHT22;9758;48.640;8.148;2022-10-16T07:52:41;19.70;62.10
19248;DHT22;9758;48.640;8.148;2022-10-16T07:55:08;19.80;62.10
19248;DHT22;9758;48.640;8.148;2022-10-16T07:57:35;19.80;62.10
19248;DHT22;9758;48.640;8.148;2022-10-16T08:00:01;19.90;62.00
19248;DHT22;9758;48.640;8.148;2022-10-16T08:02:28;19.80;61.90
19248;DHT22;9758;48.640;8.148;2022-10-16T08:04:55;19.90;61.90
19248;DHT22;9758;48.640;8.148;2022-10-16T08:07:22;19.90;61.80
19248;DHT22;9758;48.640;8.148;2022-10-16T08:09:50;20.00;61.90
19248;DHT22;9758;48.640;8.148;2022-10-16T08:12:18;20.00;61.80
19248;DHT22;9758;48.640;8.148;2022-10-16T08:14:44;20.00;61.70
19248;DHT22;9758;48.640;8.148;2022-10-16T08:17:14;20.10;61.60
19248;DHT22;9758;48.640;8.148;2022-10-16T08:19:44;20.10;61.70
19248;DHT22;9758;48.640;8.148;2022-10-16T08:22:11;20.20;61.70
19248;DHT22;9758;48.640;8.148;2022-10-16T08:24:37;20.30;61.70
19248;DHT22;9758;48.640;8.148;2022-10-16T08:27:06;20.30;61.60
19248;DHT22;9758;48.640;8.148;2022-10-16T08:29:34;20.50;62.40
19248;DHT22;9758;48.640;8.148;2022-10-16T08:32:01;20.50;61.50
19248;DHT22;9758;48.640;8.148;2022-10-16T08:34:27;20.70;61.50
19248;DHT22;9758;48.640;8.148;2022-10-16T08:36:54;20.70;61.40
19248;DHT22;9758;48.640;8.148;2022-10-16T08:39:21;20.80;61.40
19248;DHT22;9758;48.640;8.148;2022-10-16T08:42:01;20.90;61.20
19248;DHT22;9758;48.640;8.148;2022-10-16T08:44:48;21.00;61.10
19248;DHT22;9758;48.640;8.148;2022-10-16T08:47:24;21.10;61.00
19248;DHT22;9758;48.640;8.148;2022-10-16T08:49:56;21.20;60.90
19248;DHT22;9758;48.640;8.148;2022-10-16T08:52:28;21.30;60.80
19248;DHT22;9758;48.640;8.148;2022-10-16T08:54:56;21.40;60.80
19248;DHT22;9758;48.640;8.148;2022-10-16T08:57:25;21.40;60.60
19248;DHT22;9758;48.640;8.148;2022-10-16T08:59:54;21.50;60.50
19248;DHT22;9758;48.640;8.148;2022-10-16T09:02:31;21.60;59.90
19248;DHT22;9758;48.640;8.148;2022-10-16T09:05:08;21.60;60.20
19248;DHT22;9758;48.640;8.148;2022-10-16T09:07:42;21.60;60.40
19248;DHT22;9758;48.640;8.148;2022-10-16T09:10:20;21.70;60.00
19248;DHT22;9758;48.640;8.148;2022-10-16T09:12:55;21.80;60.30
19248;DHT22;9758;48.640;8.148;2022-10-16T09:15:30;21.80;59.80
19248;DHT22;9758;48.640;8.148;2022-10-16T09:18:03;21.90;60.00
19248;DHT22;9758;48.640;8.148;2022-10-16T09:20:39;22.00;60.00
19248;DHT22;9758;48.640;8.148;2022-10-16T09:23:14;22.00;60.10
19248;DHT22;9758;48.640;8.148;2022-10-16T09:25:45;22.20;60.10
19248;DHT22;9758;48.640;8.148;2022-10-16T09:28:13;22.20;59.90
19248;DHT22;9758;48.640;8.148;2022-10-16T09:30:41;22.30;59.90
19248;DHT22;9758;48.640;8.148;2022-10-16T09:33:09;22.40;59.90
19248;DHT22;9758;48.640;8.148;2022-10-16T09:35:38;22.50;59.90
19248;DHT22;9758;48.640;8.148;2022-10-16T09:38:06;22.50;59.90
19248;DHT22;9758;48.640;8.148;2022-10-16T09:40:36;22.60;59.70
19248;DHT22;9758;48.640;8.148;2022-10-16T09:43:16;22.70;59.50
19248;DHT22;9758;48.640;8.148;2022-10-16T09:45:55;22.70;59.60
19248;DHT22;9758;48.640;8.148;2022-10-16T09:48:22;22.80;59.60
19248;DHT22;9758;48.640;8.148;2022-10-16T09:50:56;22.80;59.40
19248;DHT22;9758;48.640;8.148;2022-10-16T09:53:23;22.90;59.40
19248;DHT22;9758;48.640;8.148;2022-10-16T09:55:50;22.90;59.50
19248;DHT22;9758;48.640;8.148;2022-10-16T09:58:17;23.00;59.30
19248;DHT22;9758;48.640;8.148;2022-10-16T10:00:49;23.00;59.10
19248;DHT22;9758;48.640;8.148;2022-10-16T10:03:35;23.00;59.20
19248;DHT22;9758;48.640;8.148;2022-10-16T10:06:14;23.00;59.20
19248;DHT22;9758;48.640;8.148;2022-10-16T10:08:56;23.00;59.30
19248;DHT22;9758;48.640;8.148;2022-10-16T10:11:43;23.00;59.30
19248;DHT22;9758;48.640;8.148;2022-10-16T10:14:23;23.00;59.40
19248;DHT22;9758;48.640;8.148;2022-10-16T10:16:52;22.90;59.40
19248;DHT22;9758;48.640;8.148;2022-10-16T10:19:23;22.90;59.50
19248;DHT22;9758;48.640;8.148;2022-10-16T10:21:50;22.90;59.60
19248;DHT22;9758;48.640;8.148;2022-10-16T10:24:18;22.90;59.70
19248;DHT22;9758;48.640;8.148;2022-10-16T10:26:53;23.00;59.80
19248;DHT22;9758;48.640;8.148;2022-10-16T10:29:34;23.00;59.80
19248;DHT22;9758;48.640;8.148;2022-10-16T10:32:10;23.10;59.70
19248;DHT22;9758;48.640;8.148;2022-10-16T10:34:54;23.20;59.60
19248;DHT22;9758;48.640;8.148;2022-10-16T10:37:34;23.30;59.50
19248;DHT22;9758;48.640;8.148;2022-10-16T10:40:11;23.30;59.40
19248;DHT22;9758;48.640;8.148;2022-10-16T10:42:46;23.40;59.20
19248;DHT22;9758;48.640;8.148;2022-10-16T10:45:20;23.40;59.40
19248;DHT22;9758;48.640;8.148;2022-10-16T10:48:03;23.50;59.50
19248;DHT22;9758;48.640;8.148;2022-10-16T10:50:39;23.60;59.40
19248;DHT22;9758;48.640;8.148;2022-10-16T10:53:18;23.70;59.10
19248;DHT22;9758;48.640;8.148;2022-10-16T10:55:51;23.80;59.10
19248;DHT22;9758;48.640;8.148;2022-10-16T10:58:47;23.80;59.10
19248;DHT22;9758;48.640;8.148;2022-10-16T11:01:22;23.90;59.00
19248;DHT22;9758;48.640;8.148;2022-10-16T11:06:56;24.00;58.80
19248;DHT22;9758;48.640;8.148;2022-10-16T11:09:27;24.00;58.70
19248;DHT22;9758;48.640;8.148;2022-10-16T11:11:58;24.00;58.50
19248;DHT22;9758;48.640;8.148;2022-10-16T11:14:30;23.90;58.60
19248;DHT22;9758;48.640;8.148;2022-10-16T11:17:02;23.90;58.70
19248;DHT22;9758;48.640;8.148;2022-10-16T11:19:35;23.90;58.70
19248;DHT22;9758;48.640;8.148;2022-10-16T11:22:11;23.90;58.80
19248;DHT22;9758;48.640;8.148;2022-10-16T11:24:45;23.90;58.80
19248;DHT22;9758;48.640;8.148;2022-10-16T11:27:16;23.90;59.40
19248;DHT22;9758;48.640;8.148;2022-10-16T11:29:49;23.90;58.80
19248;DHT22;9758;48.640;8.148;2022-10-16T11:32:22;23.90;58.90
19248;DHT22;9758;48.640;8.148;2022-10-16T11:35:02;24.00;58.70
19248;DHT22;9758;48.640;8.148;2022-10-16T11:37:36;24.00;58.70
19248;DHT22;9758;48.640;8.148;2022-10-16T11:40:17;24.10;58.50
19248;DHT22;9758;48.640;8.148;2022-10-16T11:42:51;24.20;57.80
19248;DHT22;9758;48.640;8.148;2022-10-16T11:45:26;24.10;58.10
19248;DHT22;9758;48.640;8.148;2022-10-16T11:48:01;24.20;58.40
19248;DHT22;9758;48.640;8.148;2022-10-16T11:50:34;24.20;58.30
19248;DHT22;9758;48.640;8.148;2022-10-16T11:53:11;24.20;58.10
19248;DHT22;9758;48.640;8.148;2022-10-16T11:55:42;24.20;58.10
19248;DHT22;9758;48.640;8.148;2022-10-16T11:58:16;24.20;58.20
19248;DHT22;9758;48.640;8.148;2022-10-16T12:00:47;24.20;58.20
19248;DHT22;9758;48.640;8.148;2022-10-16T12:03:21;24.20;58.20
19248;DHT22;9758;48.640;8.148;2022-10-16T12:06:15;24.20;57.90
19248;DHT22;9758;48.640;8.148;2022-10-16T12:08:50;24.20;57.90
19248;DHT22;9758;48.640;8.148;2022-10-16T12:11:30;24.20;58.10
19248;DHT22;9758;48.640;8.148;2022-10-16T12:14:17;24.20;58.00
19248;DHT22;9758;48.640;8.148;2022-10-16T12:16:52;24.30;57.90
19248;DHT22;9758;48.640;8.148;2022-10-16T12:19:20;24.30;57.90
19248;DHT22;9758;48.640;8.148;2022-10-16T12:21:48;24.40;57.90
19248;DHT22;9758;48.640;8.148;2022-10-16T12:24:32;24.40;57.80
19248;DHT22;9758;48.640;8.148;2022-10-16T12:27:00;24.40;57.70
19248;DHT22;9758;48.640;8.148;2022-10-16T12:29:38;24.40;57.60
19248;DHT22;9758;48.640;8.148;2022-10-16T12:32:22;24.50;57.70
19248;DHT22;9758;48.640;8.148;2022-10-16T12:34:51;24.40;57.60
19248;DHT22;9758;48.640;8.148;2022-10-16T12:37:21;24.40;57.50
19248;DHT22;9758;48.640;8.148;2022-10-16T12:39:52;24.40;57.60
19248;DHT22;9758;48.640;8.148;2022-10-16T12:42:22;24.40;57.60
19248;DHT22;9758;48.640;8.148;2022-10-16T12:44:50;24.40;57.80
19248;DHT22;9758;48.640;8.148;2022-10-16T12:47:22;24.40;57.70
19248;DHT22;9758;48.640;8.148;2022-10-16T12:49:51;24.40;57.70
19248;DHT22;9758;48.640;8.148;2022-10-16T12:52:27;24.50;57.80
19248;DHT22;9758;48.640;8.148;2022-10-16T12:54:57;24.50;57.70
19248;DHT22;9758;48.640;8.148;2022-10-16T12:57:35;24.50;57.70
19248;DHT22;9758;48.640;8.148;2022-10-16T13:00:11;24.50;57.70
19248;DHT22;9758;48.640;8.148;2022-10-16T13:03:18;24.50;57.70
19248;DHT22;9758;48.640;8.148;2022-10-16T13:06:00;24.60;57.70
19248;DHT22;9758;48.640;8.148;2022-10-16T13:08:44;24.60;57.70
19248;DHT22;9758;48.640;8.148;2022-10-16T13:11:21;24.60;57.80
19248;DHT22;9758;48.640;8.148;2022-10-16T13:14:01;24.70;57.80
19248;DHT22;9758;48.640;8.148;2022-10-16T13:16:40;24.80;57.60
19248;DHT22;9758;48.640;8.148;2022-10-16T13:19:21;24.80;57.60
19248;DHT22;9758;48.640;8.148;2022-10-16T13:21:58;24.80;57.60
19248;DHT22;9758;48.640;8.148;2022-10-16T13:24:46;24.90;57.60
19248;DHT22;9758;48.640;8.148;2022-10-16T13:27:26;25.00;57.50
19248;DHT22;9758;48.640;8.148;2022-10-16T13:30:01;25.00;57.50
19248;DHT22;9758;48.640;8.148;2022-10-16T13:32:29;25.00;57.50
19248;DHT22;9758;48.640;8.148;2022-10-16T13:34:55;25.00;57.40
19248;DHT22;9758;48.640;8.148;2022-10-16T13:37:24;25.00;57.40
19248;DHT22;9758;48.640;8.148;2022-10-16T13:40:06;24.90;57.40
19248;DHT22;9758;48.640;8.148;2022-10-16T13:42:40;24.90;57.40
19248;DHT22;9758;48.640;8.148;2022-10-16T13:45:17;24.90;57.40
19248;DHT22;9758;48.640;8.148;2022-10-16T13:47:44;24.90;57.50
19248;DHT22;9758;48.640;8.148;2022-10-16T13:50:14;24.90;57.60
19248;DHT22;9758;48.640;8.148;2022-10-16T13:52:41;24.90;57.70
19248;DHT22;9758;48.640;8.148;2022-10-16T13:55:11;24.90;57.70
19248;DHT22;9758;48.640;8.148;2022-10-16T13:57:40;25.00;57.70
19248;DHT22;9758;48.640;8.148;2022-10-16T14:00:21;25.00;57.70
19248;DHT22;9758;48.640;8.148;2022-10-16T14:02:52;25.10;57.60
19248;DHT22;9758;48.640;8.148;2022-10-16T14:05:22;25.20;57.70
19248;DHT22;9758;48.640;8.148;2022-10-16T14:07:49;25.20;57.60
19248;DHT22;9758;48.640;8.148;2022-10-16T14:10:22;25.30;57.50
19248;DHT22;9758;48.640;8.148;2022-10-16T14:12:59;25.30;57.50
19248;DHT22;9758;48.640;8.148;2022-10-16T14:15:27;25.20;57.30
19248;DHT22;9758;48.640;8.148;2022-10-16T14:17:55;25.20;57.30
19248;DHT22;9758;48.640;8.148;2022-10-16T14:20:25;25.20;57.40
19248;DHT22;9758;48.640;8.148;2022-10-16T14:23:03;25.10;57.30
19248;DHT22;9758;48.640;8.148;2022-10-16T14:25:32;25.10;57.50
19248;DHT22;9758;48.640;8.148;2022-10-16T14:28:02;25.10;57.50
19248;DHT22;9758;48.640;8.148;2022-10-16T14:30:32;25.20;57.70
19248;DHT22;9758;48.640;8.148;2022-10-16T14:33:01;25.20;57.60
19248;DHT22;9758;48.640;8.148;2022-10-16T14:35:31;25.30;57.60
19248;DHT22;9758;48.640;8.148;2022-10-16T14:37:59;25.30;57.50
19248;DHT22;9758;48.640;8.148;2022-10-16T14:40:28;25.30;57.50
19248;DHT22;9758;48.640;8.148;2022-10-16T14:42:55;25.30;57.40
19248;DHT22;9758;48.640;8.148;2022-10-16T14:45:26;25.40;57.50
19248;DHT22;9758;48.640;8.148;2022-10-16T14:47:55;25.40;57.50
19248;DHT22;9758;48.640;8.148;2022-10-16T14:50:23;25.40;57.40
19248;DHT22;9758;48.640;8.148;2022-10-16T14:52:50;25.40;57.40
19248;DHT22;9758;48.640;8.148;2022-10-16T14:55:17;25.40;57.40
19248;DHT22;9758;48.640;8.148;2022-10-16T14:57:45;25.40;57.40
19248;DHT22;9758;48.640;8.148;2022-10-16T15:00:16;25.40;57.40
19248;DHT22;9758;48.640;8.148;2022-10-16T15:02:46;25.40;57.50
19248;DHT22;9758;48.640;8.148;2022-10-16T15:05:15;25.30;57.30
19248;DHT22;9758;48.640;8.148;2022-10-16T15:07:42;25.30;57.20
19248;DHT22;9758;48.640;8.148;2022-10-16T15:10:10;25.30;57.20
19248;DHT22;9758;48.640;8.148;2022-10-16T15:12:37;25.20;57.20
19248;DHT22;9758;48.640;8.148;2022-10-16T15:15:21;25.10;57.10
19248;DHT22;9758;48.640;8.148;2022-10-16T15:17:52;25.00;57.10
19248;DHT22;9758;48.640;8.148;2022-10-16T15:20:21;25.00;57.10
19248;DHT22;9758;48.640;8.148;2022-10-16T15:22:48;24.90;57.10
19248;DHT22;9758;48.640;8.148;2022-10-16T15:25:25;24.80;57.20
19248;DHT22;9758;48.640;8.148;2022-10-16T15:27:52;24.80;57.30
19248;DHT22;9758;48.640;8.148;2022-10-16T15:30:19;24.70;57.20
19248;DHT22;9758;48.640;8.148;2022-10-16T15:32:46;24.60;57.10
19248;DHT22;9758;48.640;8.148;2022-10-16T15:35:14;24.50;57.20
19248;DHT22;9758;48.640;8.148;2022-10-16T15:37:41;24.40;57.30
19248;DHT22;9758;48.640;8.148;2022-10-16T15:40:09;24.30;57.40
19248;DHT22;9758;48.640;8.148;2022-10-16T15:42:36;24.30;57.50
19248;DHT22;9758;48.640;8.148;2022-10-16T15:45:03;24.20;57.50
19248;DHT22;9758;48.640;8.148;2022-10-16T15:47:32;24.10;57.50
19248;DHT22;9758;48.640;8.148;2022-10-16T15:49:58;24.10;57.60
19248;DHT22;9758;48.640;8.148;2022-10-16T15:52:27;24.00;57.60
19248;DHT22;9758;48.640;8.148;2022-10-16T15:54:54;24.00;57.60
19248;DHT22;9758;48.640;8.148;2022-10-16T15:57:21;23.90;57.60
19248;DHT22;9758;48.640;8.148;2022-10-16T15:59:48;23.80;57.60
19248;DHT22;9758;48.640;8.148;2022-10-16T16:02:14;23.80;57.60
19248;DHT22;9758;48.640;8.148;2022-10-16T16:04:41;23.70;57.60
19248;DHT22;9758;48.640;8.148;2022-10-16T16:07:08;23.60;57.60
19248;DHT22;9758;48.640;8.148;2022-10-16T16:09:36;23.50;57.60
19248;DHT22;9758;48.640;8.148;2022-10-16T16:12:03;23.40;57.60